Time;durP1;ratioP1;P1;durP2;ratioP2;P2;SDS_P1;SDS_P2;PMS_P1;PMS_P2;Temp;Humidity;BMP_temperature;BMP_pressure;BME280_temperature;BME280_humidity;BME280_pressure;Samples;Min_cycle;Max_cycle;Signal;HPM_P1;HPM_P2
2021/09/29 00:00:14;;;;;;;5.30;3.20;;;;;;;11.71;82.74;97975.98;117306;1177;59526;-74
2021/09/29 00:03:02;;;;;;;4.80;3.50;;;;;;;11.70;83.43;97980.74;117004;1176;59533;-74
2021/09/29 00:05:32;;;;;;;4.30;3.00;;;;;;;11.68;83.76;97977.41;117324;1177;71257;-72
2021/09/29 00:08:09;;;;;;;3.90;3.00;;;;;;;11.68;83.18;97977.41;117246;1176;69473;-73
2021/09/29 00:10:40;;;;;;;5.50;2.70;;;;;;;11.68;82.78;97981.23;117354;1177;69504;-71
2021/09/29 00:13:10;;;;;;;3.80;1.90;;;;;;;11.69;82.51;97981.18;117384;1176;59552;-70
2021/09/29 00:15:40;;;;;;;3.30;2.30;;;;;;;11.70;82.38;97983.41;117289;1177;59526;-73
2021/09/29 00:18:10;;;;;;;2.90;2.40;;;;;;;11.70;82.12;97977.80;117310;1176;70580;-71
2021/09/29 00:20:40;;;;;;;5.30;2.80;;;;;;;11.70;82.25;97975.84;117306;1176;68682;-71
2021/09/29 00:23:10;;;;;;;4.10;2.80;;;;;;;11.71;82.80;97976.32;117344;1176;69219;-71
2021/09/29 00:25:39;;;;;;;4.20;2.60;;;;;;;11.67;83.24;97977.66;117350;1177;59510;-75
2021/09/29 00:28:09;;;;;;;4.70;2.80;;;;;;;11.65;82.74;97980.55;117340;1176;59555;-72
2021/09/29 00:31:00;;;;;;;6.40;3.20;;;;;;;11.63;83.24;97986.33;117288;1177;71390;-72
2021/09/29 00:33:31;;;;;;;4.60;3.20;;;;;;;11.59;84.70;97989.37;117404;1176;68721;-73
2021/09/29 00:36:00;;;;;;;;;;;;;;;11.56;83.99;97990.13;117357;1177;70369;-71
2021/09/29 00:38:33;;;;;;;3.70;2.50;;;;;;;11.54;83.44;97983.77;117402;1177;59315;-71
2021/09/29 00:41:02;;;;;;;3.50;2.20;;;;;;;11.55;83.23;97992.29;117428;1176;59590;-72
2021/09/29 00:43:32;;;;;;;4.10;2.50;;;;;;;11.55;82.85;97990.17;117421;1177;71574;-72
2021/09/29 00:46:02;;;;;;;5.00;3.00;;;;;;;11.55;83.28;97988.92;117437;1177;69318;-71
2021/09/29 00:48:31;;;;;;;7.70;3.10;;;;;;;11.55;84.47;97988.98;117340;1175;68424;-71
2021/09/29 00:51:01;;;;;;;2.90;2.20;;;;;;;11.54;83.89;97986.08;117303;1176;59459;-73
2021/09/29 00:53:30;;;;;;;3.60;2.50;;;;;;;11.54;83.98;97987.08;117355;1170;59513;-71
2021/09/29 00:56:00;;;;;;;2.40;1.80;;;;;;;11.54;83.84;97986.23;117325;1176;71893;-70
2021/09/29 00:58:29;;;;;;;4.90;3.80;;;;;;;11.54;83.46;97990.23;117262;1176;68480;-71
2021/09/29 01:00:59;;;;;;;4.70;1.90;;;;;;;11.52;83.28;97991.09;117357;1177;69246;-72
2021/09/29 01:03:29;;;;;;;5.80;3.20;;;;;;;11.52;82.68;97990.56;117299;1176;59529;-71
2021/09/29 01:06:05;;;;;;;7.10;3.60;;;;;;;11.49;83.09;97989.87;117213;1175;59552;-73
2021/09/29 01:08:51;;;;;;;4.40;3.40;;;;;;;11.46;83.51;97990.77;117246;1177;71413;-71
2021/09/29 01:11:46;;;;;;;6.00;3.70;;;;;;;11.42;84.06;97987.02;117401;1177;69128;-71
2021/09/29 01:14:53;;;;;;;3.70;2.70;;;;;;;11.41;84.19;97990.92;117281;1177;69251;-72
2021/09/29 01:17:22;;;;;;;3.10;2.00;;;;;;;11.40;84.16;97988.54;117390;1177;59524;-72
2021/09/29 01:20:02;;;;;;;5.90;3.80;;;;;;;11.42;83.79;97990.71;117391;1176;59904;-71
2021/09/29 01:22:41;;;;;;;4.70;2.90;;;;;;;11.41;83.94;97992.32;117392;1176;69924;-74
2021/09/29 01:25:27;;;;;;;4.20;2.70;;;;;;;11.42;83.88;97992.23;117419;1177;69415;-73
2021/09/29 01:27:59;;;;;;;2.70;1.70;;;;;;;11.44;83.67;97990.40;117441;1177;69193;-73
2021/09/29 01:30:32;;;;;;;5.70;3.20;;;;;;;11.45;83.11;97989.42;117401;1176;59494;-73
2021/09/29 01:33:04;;;;;;;4.90;3.00;;;;;;;11.44;83.49;97988.66;117093;1177;59573;-71
2021/09/29 01:35:35;;;;;;;6.00;3.40;;;;;;;11.43;83.59;97988.52;117424;1176;71266;-71
2021/09/29 01:38:07;;;;;;;5.10;3.60;;;;;;;11.44;83.75;97988.66;117455;1177;69437;-72
2021/09/29 01:40:37;;;;;;;6.60;3.00;;;;;;;11.43;84.41;97987.83;117394;1176;69233;-71
2021/09/29 01:43:07;;;;;;;5.70;3.60;;;;;;;11.42;84.40;97988.64;117408;1176;59488;-71
2021/09/29 01:45:38;;;;;;;6.10;3.70;;;;;;;11.41;84.11;97990.08;117193;1175;59513;-71
2021/09/29 01:48:08;;;;;;;4.60;3.00;;;;;;;11.39;84.17;97988.61;117250;1177;71381;-71
2021/09/29 01:50:39;;;;;;;;;;;;;;;11.37;84.18;97991.04;117252;1177;68641;-70
2021/09/29 01:53:10;;;;;;;4.10;2.90;;;;;;;11.34;84.10;97986.02;117420;1177;69050;-72
2021/09/29 01:55:39;;;;;;;5.70;3.70;;;;;;;11.33;84.16;97986.23;117344;1177;59491;-73
2021/09/29 01:58:09;;;;;;;4.90;3.00;;;;;;;11.31;84.03;97988.83;117370;1177;59504;-71
2021/09/29 02:00:43;;;;;;;3.40;2.00;;;;;;;11.28;83.86;97990.25;117407;1176;71362;-71
2021/09/29 02:03:20;;;;;;;5.40;3.40;;;;;;;11.28;83.33;97987.42;117396;1176;68451;-72
2021/09/29 02:05:50;;;;;;;3.60;2.50;;;;;;;11.28;83.24;97989.36;117377;1177;68458;-71
2021/09/29 02:08:20;;;;;;;3.30;2.40;;;;;;;11.29;82.99;97987.73;117332;1177;59581;-72
2021/09/29 02:10:49;;;;;;;5.20;2.80;;;;;;;11.31;82.68;97986.94;117429;1176;59532;-72
2021/09/29 02:13:19;;;;;;;4.30;2.40;;;;;;;11.28;83.09;97986.92;117269;1176;70448;-72
2021/09/29 02:15:48;;;;;;;2.40;2.10;;;;;;;11.27;83.45;97989.09;117246;1177;68209;-72
2021/09/29 02:18:18;;;;;;;3.10;2.20;;;;;;;11.25;83.55;97991.69;117234;1176;68582;-70
2021/09/29 02:20:47;;;;;;;4.60;2.50;;;;;;;11.20;84.17;97991.42;117214;1177;59533;-72
2021/09/29 02:23:18;;;;;;;3.80;2.00;;;;;;;11.18;84.43;97989.64;117385;1177;59523;-70
2021/09/29 02:25:49;;;;;;;3.60;1.90;;;;;;;11.17;83.77;97989.23;117434;1176;70584;-70
2021/09/29 02:28:19;;;;;;;2.60;1.50;;;;;;;11.16;83.30;97991.16;117325;1177;68451;-70
2021/09/29 02:30:48;;;;;;;;;;;;;;;11.15;83.31;97995.09;117372;1177;68473;-70
2021/09/29 02:33:18;;;;;;;3.00;2.10;;;;;;;11.11;83.39;97994.81;117329;1177;59533;-71
2021/09/29 02:35:48;;;;;;;2.10;1.80;;;;;;;11.11;83.15;97998.36;117356;1177;59488;-71
2021/09/29 02:38:18;;;;;;;2.20;1.60;;;;;;;11.10;83.15;97995.45;117346;1173;70590;-73
2021/09/29 02:40:48;;;;;;;3.70;2.00;;;;;;;11.10;82.91;97996.14;117381;1176;69218;-73
2021/09/29 02:43:17;;;;;;;4.60;2.60;;;;;;;11.11;82.92;97994.17;117368;1176;68443;-72
2021/09/29 02:45:47;;;;;;;3.40;2.20;;;;;;;11.10;83.18;97996.84;117261;1177;59596;-70
2021/09/29 02:48:17;;;;;;;3.10;1.70;;;;;;;11.10;83.62;97994.57;117435;1176;59515;-70
2021/09/29 02:50:47;;;;;;;2.30;1.50;;;;;;;11.09;83.11;97996.38;117326;1177;71181;-71
2021/09/29 02:53:17;;;;;;;3.00;2.20;;;;;;;11.10;82.83;97997.19;117365;1176;69697;-71
2021/09/29 02:55:46;;;;;;;3.20;1.90;;;;;;;11.11;82.83;98000.57;117348;1176;69259;-72
2021/09/29 02:58:16;;;;;;;3.70;2.30;;;;;;;11.13;82.60;98004.14;117381;1176;59497;-71
2021/09/29 03:00:45;;;;;;;3.70;2.50;;;;;;;11.12;83.27;98005.07;117395;1177;59536;-73
2021/09/29 03:03:15;;;;;;;3.90;2.60;;;;;;;11.10;83.21;98003.30;117370;1177;70584;-71
2021/09/29 03:05:45;;;;;;;2.60;1.50;;;;;;;11.08;83.19;98000.94;117401;1177;69243;-70
2021/09/29 03:08:15;;;;;;;2.10;1.60;;;;;;;11.09;82.75;98002.63;117358;1176;69181;-71
2021/09/29 03:10:45;;;;;;;2.80;2.10;;;;;;;11.05;80.79;98003.42;117291;1176;59538;-71
2021/09/29 03:13:14;;;;;;;3.00;1.50;;;;;;;11.01;79.60;98004.02;117212;1176;59532;-71
2021/09/29 03:15:44;;;;;;;4.90;2.50;;;;;;;11.03;81.77;98006.22;117245;1177;70508;-73
2021/09/29 03:18:14;;;;;;;2.40;1.60;;;;;;;11.03;82.54;98004.41;117330;1173;68959;-71
2021/09/29 03:20:44;;;;;;;3.70;1.70;;;;;;;11.05;82.27;98003.09;117309;1177;68519;-72
2021/09/29 03:23:14;;;;;;;1.70;1.30;;;;;;;11.07;82.25;98002.45;117323;1177;59574;-71
2021/09/29 03:25:44;;;;;;;3.20;1.50;;;;;;;11.09;82.00;98002.31;117227;1176;59484;-72
2021/09/29 03:28:14;;;;;;;3.30;1.60;;;;;;;11.11;81.99;97997.11;117330;1176;70658;-71
2021/09/29 03:30:43;;;;;;;3.60;2.10;;;;;;;11.10;82.74;97991.23;117171;1177;69223;-71
2021/09/29 03:33:13;;;;;;;2.70;1.70;;;;;;;11.08;83.54;97990.51;117308;1176;69236;-70
2021/09/29 03:35:42;;;;;;;2.90;1.80;;;;;;;11.07;83.44;97993.19;117362;1176;59473;-70
2021/09/29 03:38:12;;;;;;;3.70;2.20;;;;;;;11.07;83.15;97994.23;117175;1168;59529;-71
2021/09/29 03:40:42;;;;;;;4.10;1.90;;;;;;;11.07;82.63;97990.79;117113;1176;70580;-71
2021/09/29 03:43:11;;;;;;;3.30;1.60;;;;;;;11.07;81.61;97988.84;117368;1177;68452;-71
2021/09/29 03:45:41;;;;;;;3.40;2.10;;;;;;;11.05;81.44;97987.58;117379;1176;68370;-71
2021/09/29 03:48:10;;;;;;;3.60;2.00;;;;;;;11.04;81.19;97994.23;117337;1176;59548;-70
2021/09/29 03:50:40;;;;;;;3.40;1.80;;;;;;;11.02;81.04;97991.09;117228;1170;59528;-70
2021/09/29 03:53:09;;;;;;;3.90;2.20;;;;;;;11.00;81.25;97995.58;117340;1177;69597;-72
2021/09/29 03:55:39;;;;;;;2.40;1.70;;;;;;;10.99;81.43;97998.13;117040;1177;67405;-71
2021/09/29 03:58:08;;;;;;;2.00;1.60;;;;;;;10.98;81.44;97998.50;117377;1176;69255;-72
2021/09/29 04:00:37;;;;;;;3.50;1.80;;;;;;;10.99;82.15;98002.29;117376;1177;59490;-69
2021/09/29 04:03:07;;;;;;;3.70;2.60;;;;;;;10.98;81.97;98004.42;117380;1176;59525;-71
2021/09/29 04:05:38;;;;;;;3.40;2.50;;;;;;;10.96;82.65;98001.79;117428;1176;71181;-71
2021/09/29 04:08:07;;;;;;;2.90;1.90;;;;;;;10.95;82.75;97999.89;117428;1175;69376;-72
2021/09/29 04:10:37;;;;;;;4.40;3.30;;;;;;;10.92;82.44;97996.25;117369;1176;69008;-72
2021/09/29 04:13:07;;;;;;;3.50;2.60;;;;;;;10.92;82.58;97997.15;117414;1176;59523;-70
2021/09/29 04:15:36;;;;;;;3.00;2.00;;;;;;;10.92;82.43;97997.46;117416;1177;59504;-70
2021/09/29 04:18:06;;;;;;;4.10;2.90;;;;;;;10.92;82.61;97999.05;117366;1177;71410;-71
2021/09/29 04:20:35;;;;;;;3.40;2.20;;;;;;;10.89;82.48;98001.16;117167;1176;69146;-71
2021/09/29 04:23:06;;;;;;;2.90;1.70;;;;;;;10.90;81.88;98000.94;117362;1176;69305;-71
2021/09/29 04:25:36;;;;;;;4.50;2.60;;;;;;;10.92;81.27;97997.86;117461;1177;59510;-72
2021/09/29 04:28:05;;;;;;;3.40;2.20;;;;;;;10.94;80.94;97994.20;117328;1177;59590;-71
2021/09/29 04:30:35;;;;;;;3.90;2.30;;;;;;;10.92;81.45;97992.41;117380;1177;70590;-72
2021/09/29 04:33:04;;;;;;;4.10;2.20;;;;;;;10.90;81.64;97986.59;117391;1177;68317;-70
2021/09/29 04:35:33;;;;;;;5.10;3.20;;;;;;;10.89;81.51;97990.69;117366;1177;68567;-69
2021/09/29 04:38:02;;;;;;;5.60;2.80;;;;;;;10.85;82.32;97994.81;116969;1177;59536;-72
2021/09/29 04:40:32;;;;;;;4.00;2.90;;;;;;;10.84;81.87;97996.11;117293;1176;59484;-70
2021/09/29 04:43:01;;;;;;;2.30;1.90;;;;;;;10.81;82.44;97996.11;117382;1177;70864;-71
2021/09/29 04:45:30;;;;;;;4.60;3.30;;;;;;;10.79;82.01;98000.80;117406;1177;68549;-71
2021/09/29 04:48:06;;;;;;;4.50;2.90;;;;;;;10.77;82.24;98009.64;117399;1177;69462;-71
2021/09/29 04:50:36;;;;;;;4.70;2.80;;;;;;;10.76;82.27;98011.95;117333;1177;59488;-71
2021/09/29 04:53:05;;;;;;;3.50;2.90;;;;;;;10.77;82.38;98013.79;117347;1176;59504;-71
2021/09/29 04:55:34;;;;;;;5.00;2.50;;;;;;;10.78;81.93;98017.91;117387;1177;71491;-71
2021/09/29 04:58:03;;;;;;;3.30;2.50;;;;;;;10.78;80.26;98017.91;117321;1177;69394;-70
2021/09/29 05:00:32;;;;;;;3.70;2.20;;;;;;;10.81;79.45;98017.94;117326;1177;68299;-71
2021/09/29 05:03:02;;;;;;;7.50;3.40;;;;;;;10.86;78.91;98018.60;117272;1177;59545;-73
2021/09/29 05:05:34;;;;;;;2.80;2.00;;;;;;;10.87;78.99;98019.27;117198;1176;59535;-71
2021/09/29 05:08:06;;;;;;;3.90;2.60;;;;;;;10.88;79.51;98018.86;117325;1177;70640;-73
2021/09/29 05:10:54;;;;;;;2.90;2.00;;;;;;;10.90;79.50;98016.98;117402;1177;67990;-71
2021/09/29 05:13:30;;;;;;;3.80;3.00;;;;;;;10.96;78.99;98015.52;117309;1177;69493;-73
2021/09/29 05:16:01;;;;;;;4.20;3.10;;;;;;;10.99;78.63;98014.32;117164;1177;59946;-72
2021/09/29 05:18:30;;;;;;;4.70;2.80;;;;;;;10.99;79.03;98019.34;117261;1176;59552;-72
2021/09/29 05:20:59;;;;;;;4.80;3.70;;;;;;;11.02;78.89;98025.42;116954;1177;71612;-71
2021/09/29 05:23:28;;;;;;;5.20;3.20;;;;;;;11.05;78.93;98027.73;116986;1177;69205;-71
2021/09/29 05:25:58;;;;;;;4.00;3.30;;;;;;;11.08;79.11;98032.17;116970;1177;69011;-71
2021/09/29 05:28:31;;;;;;;4.20;3.00;;;;;;;11.13;79.19;98033.07;117013;1177;59500;-73
2021/09/29 05:31:00;;;;;;;5.80;3.40;;;;;;;11.18;79.64;98039.20;117304;1177;59533;-72
2021/09/29 05:33:29;;;;;;;5.60;4.10;;;;;;;11.23;79.62;98036.98;117273;1177;70706;-70
2021/09/29 05:35:58;;;;;;;5.80;3.60;;;;;;;11.29;79.24;98039.91;117288;1176;68449;-72
2021/09/29 05:38:27;;;;;;;4.40;2.70;;;;;;;11.34;78.17;98036.60;117344;1176;68983;-70
2021/09/29 05:40:56;;;;;;;4.00;3.20;;;;;;;11.38;77.42;98034.75;117110;1177;59535;-74
2021/09/29 05:43:26;;;;;;;4.70;2.90;;;;;;;11.40;76.78;98035.64;117164;1176;59523;-71
2021/09/29 05:45:57;;;;;;;5.00;3.70;;;;;;;11.43;76.71;98036.89;117182;1177;70467;-71
2021/09/29 05:48:26;;;;;;;4.80;3.30;;;;;;;11.45;76.80;98039.70;117320;1176;68639;-71
2021/09/29 05:50:56;;;;;;;5.00;3.20;;;;;;;11.48;76.92;98044.92;117132;1174;69192;-71
2021/09/29 05:53:25;;;;;;;4.90;3.00;;;;;;;11.53;77.52;98046.70;117296;1176;59868;-71
2021/09/29 05:55:54;;;;;;;4.60;3.20;;;;;;;11.57;75.74;98052.84;117011;1177;59513;-71
2021/09/29 05:58:24;;;;;;;5.60;3.90;;;;;;;11.62;75.49;98052.89;117296;1177;70349;-70
2021/09/29 06:00:53;;;;;;;4.50;3.40;;;;;;;11.67;75.43;98056.17;117286;1176;69298;-70
2021/09/29 06:03:23;;;;;;;3.80;2.40;;;;;;;11.73;75.28;98058.45;117000;1177;69373;-70
2021/09/29 06:05:52;;;;;;;4.20;3.10;;;;;;;11.79;74.16;98062.56;117223;1177;59490;-71
2021/09/29 06:08:21;;;;;;;4.50;3.00;;;;;;;11.83;73.78;98063.73;117283;1177;59494;-71
2021/09/29 06:10:50;;;;;;;4.00;3.00;;;;;;;11.88;73.88;98067.74;117218;1176;71239;-70
2021/09/29 06:13:19;;;;;;;4.70;3.20;;;;;;;11.92;73.56;98067.16;117272;1177;68469;-71
2021/09/29 06:15:49;;;;;;;7.20;3.60;;;;;;;11.97;74.00;98067.52;116996;1177;67688;-71
2021/09/29 06:18:19;;;;;;;5.30;4.10;;;;;;;12.01;74.01;98066.01;117283;1176;59526;-72
2021/09/29 06:20:51;;;;;;;4.60;3.40;;;;;;;12.04;73.11;98061.30;117125;1177;59562;-72
2021/09/29 06:23:20;;;;;;;4.50;3.30;;;;;;;12.09;73.38;98064.73;117287;1177;72489;-71
2021/09/29 06:25:49;;;;;;;4.90;4.20;;;;;;;12.14;72.92;98067.54;117362;1176;69220;-70
2021/09/29 06:28:18;;;;;;;6.80;3.30;;;;;;;12.15;72.81;98068.50;117140;1176;68491;-71
2021/09/29 06:30:49;;;;;;;3.70;2.70;;;;;;;12.25;72.43;98070.33;117291;1176;59520;-71
2021/09/29 06:33:18;;;;;;;5.20;4.00;;;;;;;12.32;72.48;98070.85;116995;1177;59552;-73
2021/09/29 06:35:48;;;;;;;6.00;3.70;;;;;;;12.41;72.33;98074.25;117250;1177;70592;-70
2021/09/29 06:38:17;;;;;;;4.40;3.20;;;;;;;12.53;70.36;98079.20;116950;1177;69323;-71
2021/09/29 06:40:47;;;;;;;5.00;3.10;;;;;;;12.58;70.57;98080.58;117182;1176;69102;-71
2021/09/29 06:43:16;;;;;;;6.90;4.80;;;;;;;12.66;69.08;98079.69;117289;1176;59868;-71
2021/09/29 06:45:45;;;;;;;5.80;3.40;;;;;;;12.69;68.04;98077.00;117356;1177;59469;-71
2021/09/29 06:48:15;;;;;;;4.40;3.50;;;;;;;12.78;68.25;98085.28;117323;1177;70693;-71
2021/09/29 06:50:45;;;;;;;5.70;3.50;;;;;;;12.85;68.02;98084.30;117339;1177;68492;-72
2021/09/29 06:53:19;;;;;;;4.30;3.60;;;;;;;12.94;67.97;98085.55;117301;1174;69031;-70
2021/09/29 06:55:50;;;;;;;4.30;3.20;;;;;;;13.05;67.66;98088.23;117240;1177;59529;-74
2021/09/29 06:58:20;;;;;;;5.40;3.40;;;;;;;13.20;66.83;98089.27;117336;1175;59529;-71
2021/09/29 07:00:49;;;;;;;5.50;4.00;;;;;;;13.32;64.74;98094.41;117341;1176;70462;-73
2021/09/29 07:03:21;;;;;;;4.10;3.10;;;;;;;13.42;64.55;98101.36;117337;1177;68355;-71
2021/09/29 07:05:50;;;;;;;4.60;3.20;;;;;;;13.67;64.42;98104.06;117305;1177;68476;-71
2021/09/29 07:08:19;;;;;;;5.00;3.30;;;;;;;13.93;63.42;98108.02;117317;1177;59522;-70
2021/09/29 07:10:48;;;;;;;4.40;3.70;;;;;;;14.06;62.71;98107.23;117026;1177;59513;-74
2021/09/29 07:13:17;;;;;;;4.40;3.10;;;;;;;14.21;61.47;98109.60;117267;1176;71509;-73
2021/09/29 07:15:46;;;;;;;6.00;3.70;;;;;;;14.37;61.45;98111.89;117281;1177;68654;-71
2021/09/29 07:18:17;;;;;;;5.60;3.60;;;;;;;14.60;59.75;98112.08;117113;1176;69182;-72
2021/09/29 07:20:50;;;;;;;6.10;3.00;;;;;;;14.71;58.12;98108.95;117278;1177;59519;-70
2021/09/29 07:23:20;;;;;;;4.20;3.40;;;;;;;14.73;58.67;98108.26;117334;1177;59504;-70
2021/09/29 07:25:49;;;;;;;4.00;3.00;;;;;;;14.86;59.16;98114.41;117359;1176;71412;-71
2021/09/29 07:28:18;;;;;;;3.90;3.30;;;;;;;14.96;56.71;98117.33;117288;1177;69190;-70
2021/09/29 07:30:47;;;;;;;6.40;4.00;;;;;;;15.02;56.12;98114.89;117004;1167;68509;-70
2021/09/29 07:33:16;;;;;;;5.50;3.80;;;;;;;14.90;56.53;98115.01;117268;1176;59587;-70
2021/09/29 07:35:45;;;;;;;5.30;3.70;;;;;;;14.77;56.69;98121.05;117284;1177;59487;-72
2021/09/29 07:38:14;;;;;;;4.90;3.40;;;;;;;14.79;55.90;98120.74;117299;1176;71381;-71
2021/09/29 07:40:43;;;;;;;6.70;3.70;;;;;;;14.72;55.47;98124.98;117084;1177;69306;-72
2021/09/29 07:43:13;;;;;;;4.20;3.00;;;;;;;14.76;55.79;98126.95;117115;1177;68717;-72
2021/09/29 07:45:43;;;;;;;8.30;3.40;;;;;;;14.75;55.40;98123.35;117156;1176;59535;-75
2021/09/29 07:48:12;;;;;;;;;;;;;;;14.66;56.83;98120.00;117118;1177;59508;-73
2021/09/29 07:50:42;;;;;;;5.40;3.40;;;;;;;14.70;55.95;98118.64;116919;1177;70867;-72
2021/09/29 07:53:14;;;;;;;4.40;3.40;;;;;;;14.74;56.62;98121.87;117091;1176;68341;-72
2021/09/29 07:55:44;;;;;;;4.90;3.30;;;;;;;15.04;55.26;98119.98;117014;1177;68466;-72
2021/09/29 07:58:13;;;;;;;4.60;3.30;;;;;;;15.28;54.82;98123.17;116878;1177;59538;-74
2021/09/29 08:00:43;;;;;;;4.50;3.30;;;;;;;15.50;52.46;98118.73;116888;1177;59491;-71
2021/09/29 08:03:13;;;;;;;4.30;3.20;;;;;;;15.52;53.30;98120.35;116954;1177;71251;-72
2021/09/29 08:05:44;;;;;;;4.40;2.90;;;;;;;15.57;53.31;98113.74;117084;1176;68676;-70
2021/09/29 08:08:13;;;;;;;4.20;2.70;;;;;;;15.72;52.65;98116.77;117048;1176;68697;-73
2021/09/29 08:10:43;;;;;;;4.60;2.80;;;;;;;15.93;51.94;98113.97;116959;1176;59545;-73
2021/09/29 08:13:14;;;;;;;4.50;3.10;;;;;;;16.07;52.01;98114.05;117151;1172;59532;-71
2021/09/29 08:15:43;;;;;;;;;;;;;;;16.33;51.37;98119.39;117025;1179;71214;-73
2021/09/29 08:18:13;;;;;;;4.90;2.90;;;;;;;16.40;50.32;98117.79;117033;1176;68387;-72
2021/09/29 08:20:44;;;;;;;5.20;3.10;;;;;;;16.42;50.09;98116.02;117134;1176;69063;-73
2021/09/29 08:23:22;;;;;;;4.70;3.80;;;;;;;16.33;48.81;98114.30;116937;1168;59590;-73
2021/09/29 08:26:29;;;;;;;3.50;3.00;;;;;;;15.97;49.45;98115.46;117144;1177;59612;-73
2021/09/29 08:34:53;;;;;;;5.10;3.40;;;;;;;15.63;51.08;98113.62;117033;1177;69473;-72
2021/09/29 08:38:12;;;;;;;5.10;3.90;;;;;;;15.60;51.27;98113.02;116949;1177;59565;-70
2021/09/29 08:41:24;;;;;;;6.50;2.90;;;;;;;15.41;51.16;98111.19;116913;1176;59530;-74
2021/09/29 08:48:34;;;;;;;4.10;3.20;;;;;;;15.37;51.53;98107.54;117099;1176;69304;-74
2021/09/29 08:54:00;;;;;;;4.90;3.30;;;;;;;15.58;51.32;98108.27;116738;1177;59520;-72
2021/09/29 09:16:31;;;;;;;3.40;2.40;;;;;;;18.00;44.22;98098.13;117114;1177;68289;-72
2021/09/29 09:19:05;;;;;;;6.80;3.40;;;;;;;17.81;45.24;98100.77;116975;1177;59532;-73
2021/09/29 09:21:52;;;;;;;4.40;3.20;;;;;;;17.65;45.53;98107.63;117139;1176;59546;-72
2021/09/29 09:24:33;;;;;;;4.30;2.80;;;;;;;17.63;45.43;98111.38;116888;1177;71176;-73
2021/09/29 09:27:10;;;;;;;4.80;2.50;;;;;;;17.85;44.67;98117.30;116706;1177;69217;-73
2021/09/29 09:29:49;;;;;;;4.00;2.80;;;;;;;18.11;43.39;98109.30;116916;1177;68508;-69
2021/09/29 09:32:24;;;;;;;4.10;2.60;;;;;;;18.08;42.51;98107.05;117029;1177;59539;-72
2021/09/29 09:35:03;;;;;;;4.80;2.90;;;;;;;18.26;42.47;98112.44;117123;1176;59472;-72
2021/09/29 09:37:33;;;;;;;4.40;2.80;;;;;;;18.64;42.30;98117.39;116966;1176;71293;-71
2021/09/29 09:40:20;;;;;;;3.90;2.60;;;;;;;19.03;41.55;98111.36;116916;1177;68488;-73
2021/09/29 09:42:56;;;;;;;3.50;2.90;;;;;;;19.48;40.36;98105.95;116947;1177;68449;-73
2021/09/29 09:45:44;;;;;;;3.80;2.80;;;;;;;19.45;39.88;98104.76;116949;1177;59527;-73
2021/09/29 09:48:17;;;;;;;4.00;2.50;;;;;;;19.60;39.84;98100.17;116960;1179;59466;-70
2021/09/29 09:50:47;;;;;;;3.40;2.40;;;;;;;20.02;40.51;98106.39;117048;1176;70613;-73
2021/09/29 09:53:16;;;;;;;;;;;;;;;20.67;38.41;98109.20;117095;1177;68974;-73
2021/09/29 09:55:46;;;;;;;4.20;2.50;;;;;;;20.89;37.89;98110.29;116908;1176;69244;-71
2021/09/29 09:58:15;;;;;;;;;;;;;;;20.60;38.67;98110.98;116947;1177;59578;-73
2021/09/29 10:00:45;;;;;;;5.20;3.00;;;;;;;21.14;38.24;98108.85;117116;1177;59492;-73
2021/09/29 10:03:16;;;;;;;3.90;2.70;;;;;;;21.16;37.29;98114.35;116959;1177;71415;-73
2021/09/29 10:05:49;;;;;;;3.90;2.60;;;;;;;21.22;37.70;98110.21;117181;1177;67809;-74
2021/09/29 10:08:23;;;;;;;4.00;2.80;;;;;;;21.21;37.12;98110.61;116962;1177;69214;-73
2021/09/29 10:11:10;;;;;;;3.90;2.50;;;;;;;20.99;38.21;98101.55;116975;1177;59510;-74
2021/09/29 10:14:05;;;;;;;3.60;2.40;;;;;;;21.12;38.19;98097.71;116977;1177;59555;-73
2021/09/29 10:28:42;;;;;;;3.80;2.20;;;;;;;19.97;39.22;98089.22;116976;1176;59555;-73
2021/09/29 10:31:36;;;;;;;4.40;2.60;;;;;;;19.81;39.37;98090.08;116966;1177;71560;-70
2021/09/29 10:34:24;;;;;;;3.70;2.50;;;;;;;19.41;40.21;98086.49;117056;1177;68342;-75
2021/09/29 10:42:38;;;;;;;5.80;2.70;;;;;;;18.94;42.10;98082.73;116962;1177;59532;-73
2021/09/29 11:07:47;;;;;;;;;;;;;;;19.07;42.41;98086.13;116906;1177;59554;-73
2021/09/29 11:10:46;;;;;;;4.70;2.40;;;;;;;19.27;42.35;98083.97;117164;1177;59898;-73
2021/09/29 11:31:03;;;;;;;5.80;3.50;;;;;;;19.40;42.24;98063.61;117066;1177;69147;-74
2021/09/29 11:33:51;;;;;;;4.70;3.00;;;;;;;19.52;41.40;98058.89;117168;1176;69134;-73
2021/09/29 12:08:08;;;;;;;4.40;2.80;;;;;;;20.96;36.80;98062.08;117000;1177;59549;-75
2021/09/29 12:10:49;;;;;;;2.80;2.50;;;;;;;21.51;35.83;98065.27;116925;1177;70604;-73
2021/09/29 12:13:20;;;;;;;3.10;2.70;;;;;;;21.75;35.50;98069.42;117269;1176;68550;-78
2021/09/29 12:15:53;;;;;;;3.60;2.40;;;;;;;21.88;35.27;98064.48;116938;1177;69764;-75
2021/09/29 12:18:30;;;;;;;4.70;2.90;;;;;;;22.38;34.79;98065.16;116976;1175;59551;-72
2021/09/29 12:21:07;;;;;;;4.00;2.90;;;;;;;22.51;34.23;98065.57;117006;1177;59574;-73
2021/09/29 12:23:50;;;;;;;4.00;2.70;;;;;;;22.34;34.67;98066.00;116880;1177;71374;-74
2021/09/29 12:26:26;;;;;;;3.40;2.70;;;;;;;22.29;34.58;98062.78;116868;1179;69223;-71
2021/09/29 12:29:15;;;;;;;4.00;2.50;;;;;;;22.45;34.50;98056.39;116888;1177;69227;-74
2021/09/29 12:32:09;;;;;;;3.80;2.10;;;;;;;22.44;34.54;98055.45;116966;1177;59520;-74
2021/09/29 12:34:49;;;;;;;3.80;2.70;;;;;;;22.07;35.39;98062.93;116990;1176;59545;-73
2021/09/29 12:37:20;;;;;;;3.40;2.90;;;;;;;21.55;35.65;98062.20;116997;1177;71746;-76
2021/09/29 12:39:58;;;;;;;3.60;2.80;;;;;;;21.16;36.43;98053.23;117191;1168;67619;-75
2021/09/29 12:42:40;;;;;;;3.60;2.60;;;;;;;20.67;37.79;98055.40;116961;1177;69273;-75
2021/09/29 12:45:11;;;;;;;3.70;2.70;;;;;;;20.59;37.79;98059.75;116910;1177;59642;-73
2021/09/29 12:47:46;;;;;;;4.20;2.70;;;;;;;20.51;38.80;98060.77;117031;1177;59510;-74
2021/09/29 12:50:22;;;;;;;3.60;2.70;;;;;;;20.46;39.34;98063.02;117034;1177;70701;-74
2021/09/29 12:52:59;;;;;;;5.30;2.40;;;;;;;20.23;39.36;98065.02;116814;1177;69513;-74
2021/09/29 12:55:37;;;;;;;4.10;2.80;;;;;;;19.91;39.26;98067.66;116945;1177;69171;-75
2021/09/29 12:58:08;;;;;;;4.30;2.70;;;;;;;19.69;40.26;98062.48;116994;1177;59496;-74
2021/09/29 13:00:42;;;;;;;4.10;3.20;;;;;;;19.43;41.12;98067.02;116976;1176;59529;-74
2021/09/29 13:03:16;;;;;;;5.00;3.10;;;;;;;19.24;40.85;98058.78;116998;1177;71431;-74
2021/09/29 13:05:48;;;;;;;3.70;3.30;;;;;;;19.02;41.30;98054.98;116964;1177;68398;-75
2021/09/29 13:08:18;;;;;;;3.80;2.70;;;;;;;19.19;41.20;98060.35;117162;1175;68294;-74
2021/09/29 13:10:47;;;;;;;5.30;3.10;;;;;;;19.49;40.63;98063.01;117243;1176;59516;-73
2021/09/29 13:13:17;;;;;;;5.50;4.00;;;;;;;19.23;40.67;98059.27;117235;1176;59480;-72
2021/09/29 13:15:50;;;;;;;5.20;2.80;;;;;;;19.35;40.76;98064.83;117313;1176;70574;-72
2021/09/29 13:18:42;;;;;;;3.80;2.70;;;;;;;19.39;40.08;98065.83;117357;1176;69193;-73
2021/09/29 13:21:20;;;;;;;7.90;3.50;;;;;;;19.44;40.03;98067.10;117309;1176;68457;-73
2021/09/29 13:26:55;;;;;;;4.00;3.20;;;;;;;19.31;40.03;98066.73;117340;1175;59548;-73
2021/09/29 13:37:51;;;;;;;4.10;3.10;;;;;;;19.34;39.90;98071.78;117252;1177;59484;-73
2021/09/29 13:40:20;;;;;;;3.90;2.80;;;;;;;19.76;38.95;98079.67;117017;1176;59527;-73
2021/09/29 13:42:48;;;;;;;4.10;2.80;;;;;;;20.01;38.80;98076.86;117167;1177;71371;-75
2021/09/29 13:45:18;;;;;;;3.80;2.80;;;;;;;19.74;38.12;98078.20;116931;1177;69182;-72
2021/09/29 13:47:47;;;;;;;5.00;3.30;;;;;;;19.49;37.77;98080.70;117250;1177;69231;-72
2021/09/29 13:50:16;;;;;;;3.80;3.00;;;;;;;19.44;38.36;98083.84;117230;1177;59544;-73
2021/09/29 13:52:46;;;;;;;7.20;3.80;;;;;;;19.28;39.35;98082.98;117354;1175;59532;-73
2021/09/29 13:55:19;;;;;;;3.90;2.80;;;;;;;19.01;39.33;98079.04;117166;1176;71151;-72
2021/09/29 13:57:58;;;;;;;4.30;3.10;;;;;;;18.64;40.52;98084.66;117309;1177;69612;-74
2021/09/29 14:30:54;;;;;;;4.90;3.80;;;;;;;16.63;45.46;98087.98;117250;1177;59520;-72
2021/09/29 14:33:26;;;;;;;4.50;3.20;;;;;;;16.59;45.38;98085.36;117326;1177;59535;-72
2021/09/29 14:35:55;;;;;;;5.10;4.30;;;;;;;16.46;45.86;98089.05;117286;1176;71467;-73